Time;durP1;ratioP1;P1;durP2;ratioP2;P2;SDS_P1;SDS_P2;PMS_P1;PMS_P2;Temp;Humidity;BMP_temperature;BMP_pressure;BME280_temperature;BME280_humidity;BME280_pressure;Samples;Min_cycle;Max_cycle;Signal;HPM_P1;HPM_P2
2022/05/22 00:00:08;;;;;;;6.45;3.50;;;;;;;22.86;43.34;101979.50;5015652;28;20087;-63
2022/05/22 00:02:38;;;;;;;8.43;3.85;;;;;;;22.84;43.54;101974.34;5014604;28;20037;-63
2022/05/22 00:05:04;;;;;;;10.02;3.20;;;;;;;22.79;43.65;101971.34;5015621;28;20479;-63
2022/05/22 00:07:30;;;;;;;8.40;3.30;;;;;;;22.79;43.49;101974.00;5013327;28;20047;-63
2022/05/22 00:09:55;;;;;;;8.27;3.60;;;;;;;22.74;43.62;101967.56;5014310;28;20546;-63
2022/05/22 00:12:21;;;;;;;6.28;3.25;;;;;;;22.75;43.84;101961.25;5015903;28;20049;-63
2022/05/22 00:14:46;;;;;;;10.85;3.67;;;;;;;22.73;43.65;101968.56;5012849;28;20065;-63
2022/05/22 00:17:12;;;;;;;8.65;3.42;;;;;;;22.67;44.03;101964.75;5014058;28;20116;-63
2022/05/22 00:19:39;;;;;;;5.20;2.90;;;;;;;22.64;43.88;101961.63;5016503;28;20424;-63
2022/05/22 00:22:05;;;;;;;7.10;3.42;;;;;;;22.64;43.85;101967.75;5014284;28;20056;-62
2022/05/22 00:24:32;;;;;;;9.35;3.55;;;;;;;22.62;44.22;101964.44;5013519;28;20127;-62
2022/05/22 00:27:00;;;;;;;6.80;3.50;;;;;;;22.55;44.30;101955.50;5013155;28;20037;-63
2022/05/22 00:29:29;;;;;;;7.53;3.80;;;;;;;22.60;43.94;101964.59;5015295;28;20029;-63
2022/05/22 00:31:55;;;;;;;10.15;3.83;;;;;;;22.57;44.09;101962.28;5011456;28;20033;-63
2022/05/22 00:34:21;;;;;;;7.10;3.03;;;;;;;22.56;44.26;101959.81;5012854;28;20033;-63
2022/05/22 00:36:46;;;;;;;7.15;3.38;;;;;;;22.54;43.96;101952.03;5015634;28;20041;-63
2022/05/22 00:39:12;;;;;;;9.27;3.97;;;;;;;22.54;43.94;101959.97;5028050;28;20021;-63
2022/05/22 00:41:39;;;;;;;7.68;3.40;;;;;;;22.53;43.97;101960.16;5013739;28;20115;-63
2022/05/22 00:44:07;;;;;;;6.53;3.55;;;;;;;22.42;44.29;101947.22;5016215;28;20403;-62
2022/05/22 00:46:33;;;;;;;7.40;3.40;;;;;;;22.44;44.25;101953.19;5014826;28;22022;-63
2022/05/22 00:49:08;;;;;;;7.30;3.40;;;;;;;22.45;44.27;101949.56;5009794;28;20029;-62
2022/05/22 00:51:49;;;;;;;8.07;3.42;;;;;;;22.34;44.27;101939.31;5027629;28;20148;-63
2022/05/22 00:54:26;;;;;;;6.35;3.65;;;;;;;22.39;44.42;101943.09;5029942;28;20510;-63
2022/05/22 00:57:10;;;;;;;7.72;3.40;;;;;;;22.39;44.53;101948.41;5012948;28;20075;-63
2022/05/22 00:59:41;;;;;;;7.93;3.22;;;;;;;22.37;44.39;101949.56;5015546;28;20869;-63
2022/05/22 01:02:06;;;;;;;7.28;3.90;;;;;;;22.39;44.26;101950.22;5025266;28;20033;-63
2022/05/22 01:04:35;;;;;;;10.40;3.30;;;;;;;22.35;44.32;101947.09;5029811;28;20484;-63
2022/05/22 01:07:05;;;;;;;10.88;3.53;;;;;;;22.28;44.43;101940.81;5013376;28;20037;-63
2022/05/22 01:09:31;;;;;;;7.93;3.40;;;;;;;22.30;44.37;101938.81;5015972;28;20720;-63
2022/05/22 01:12:04;;;;;;;8.52;3.50;;;;;;;22.30;44.73;101946.78;5015309;28;20567;-63
2022/05/22 01:14:34;;;;;;;9.45;3.53;;;;;;;22.31;44.57;101935.16;5010436;28;20404;-63
2022/05/22 01:17:07;;;;;;;6.68;2.85;;;;;;;22.24;44.46;101935.00;5012943;28;20403;-63
2022/05/22 01:19:35;;;;;;;10.40;3.53;;;;;;;22.29;44.47;101939.81;5011525;28;20809;-63
2022/05/22 01:22:04;;;;;;;9.18;2.88;;;;;;;22.26;44.52;101932.16;5025923;28;20053;-63
2022/05/22 01:24:29;;;;;;;7.37;3.80;;;;;;;22.27;44.75;101947.94;5025595;28;20043;-63
2022/05/22 01:27:01;;;;;;;4.40;3.08;;;;;;;22.28;44.53;101943.47;5014089;28;20472;-63
2022/05/22 01:29:45;;;;;;;8.68;3.67;;;;;;;22.26;44.47;101940.13;5012726;28;20076;-63
2022/05/22 01:32:12;;;;;;;11.95;4.10;;;;;;;22.26;44.75;101940.13;5011946;28;20041;-63
2022/05/22 01:34:40;;;;;;;5.95;3.72;;;;;;;22.26;44.59;101953.41;5012925;28;20041;-62
2022/05/22 01:37:06;;;;;;;7.78;3.25;;;;;;;22.26;44.77;101961.34;5012444;28;20045;-63
2022/05/22 01:39:32;;;;;;;8.73;3.13;;;;;;;22.24;44.93;101964.19;5027325;28;20040;-63
2022/05/22 01:41:58;;;;;;;9.43;3.80;;;;;;;22.24;44.98;101958.06;5012890;28;20613;-63
2022/05/22 01:44:24;;;;;;;10.13;3.38;;;;;;;22.19;44.86;101957.72;5026579;28;20108;-63
2022/05/22 01:46:50;;;;;;;8.25;3.55;;;;;;;22.17;44.89;101955.25;5010303;28;20403;-63
2022/05/22 01:49:16;;;;;;;9.57;3.22;;;;;;;22.14;45.06;101950.28;5013270;28;20037;-63
2022/05/22 01:51:43;;;;;;;7.28;3.47;;;;;;;22.16;44.67;101950.94;5012112;28;20044;-63
2022/05/22 01:54:11;;;;;;;11.18;3.60;;;;;;;22.17;44.95;101959.72;5012830;28;20049;-63
2022/05/22 01:56:38;;;;;;;5.90;3.63;;;;;;;22.15;44.83;101959.91;5009536;28;20153;-64
2022/05/22 01:59:06;;;;;;;8.32;3.72;;;;;;;22.09;45.01;101946.50;5032856;28;20855;-63
2022/05/22 02:01:39;;;;;;;9.18;3.45;;;;;;;22.12;44.85;101949.63;5017106;28;20136;-64
2022/05/22 02:04:06;;;;;;;8.52;3.42;;;;;;;22.14;44.80;101952.94;4980438;28;20037;-64
2022/05/22 02:08:18;;;;;;;8.38;3.80;;;;;;;22.11;45.01;101950.63;5031776;28;20037;-64
2022/05/22 02:09:23;;;;;;;9.70;3.65;;;;;;;22.10;44.92;101956.94;5015122;28;20057;-63
2022/05/22 02:11:48;;;;;;;7.18;3.35;;;;;;;22.08;44.80;101955.41;5017116;28;21516;-64
2022/05/22 02:14:15;;;;;;;8.27;3.42;;;;;;;22.09;44.80;101946.50;5016030;28;20033;-63
2022/05/22 02:16:42;;;;;;;9.43;4.15;;;;;;;22.08;45.01;101947.47;5015249;28;20048;-63
2022/05/22 02:19:11;;;;;;;7.32;3.47;;;;;;;22.05;44.93;101943.31;5018428;28;20038;-64
2022/05/22 02:21:37;;;;;;;8.13;3.38;;;;;;;22.09;44.98;101942.00;5002207;28;20072;-63
2022/05/22 02:24:03;;;;;;;8.30;3.45;;;;;;;22.03;44.98;101932.84;5029117;28;20548;-63
2022/05/22 02:26:29;;;;;;;9.90;3.50;;;;;;;22.03;44.81;101932.03;5016545;28;20557;-63
2022/05/22 02:28:55;;;;;;;7.57;3.75;;;;;;;21.95;45.03;101930.22;5011984;28;20033;-63
2022/05/22 02:31:21;;;;;;;6.90;3.60;;;;;;;22.02;44.73;101946.28;5027872;28;20034;-64
2022/05/22 02:33:52;;;;;;;8.65;3.85;;;;;;;22.02;45.10;101952.41;5017059;28;20040;-64
2022/05/22 02:36:17;;;;;;;11.70;4.25;;;;;;;22.03;44.97;101940.81;5018194;28;20037;-63
2022/05/22 02:38:47;;;;;;;10.02;4.25;;;;;;;21.98;44.82;101937.84;5019446;28;20038;-63
2022/05/22 02:41:17;;;;;;;7.07;3.30;;;;;;;21.93;45.01;101918.13;5031542;28;20068;-63
2022/05/22 02:43:49;;;;;;;6.70;3.55;;;;;;;22.00;44.81;101927.88;5017342;28;20037;-63
2022/05/22 02:46:16;;;;;;;6.90;4.05;;;;;;;21.92;45.19;101916.47;5016577;28;20049;-63
2022/05/22 02:48:42;;;;;;;5.43;3.53;;;;;;;21.94;45.19;101923.25;5017312;28;20036;-64
2022/05/22 02:51:12;;;;;;;5.50;3.67;;;;;;;21.97;44.99;101911.47;5019454;28;20049;-63
2022/05/22 02:53:38;;;;;;;10.73;3.60;;;;;;;21.97;45.21;101914.97;5013837;28;20068;-63
2022/05/22 02:56:25;;;;;;;19.67;4.45;;;;;;;21.95;45.15;101914.31;5017130;28;20058;-63
2022/05/22 02:59:10;;;;;;;7.10;3.30;;;;;;;21.94;45.23;101912.66;5018049;28;20390;-63
2022/05/22 03:01:46;;;;;;;9.50;3.92;;;;;;;21.90;45.25;101914.00;5018765;28;20038;-63
2022/05/22 03:04:12;;;;;;;5.95;3.80;;;;;;;21.93;44.93;101912.81;5019313;28;20665;-63
2022/05/22 03:06:39;;;;;;;6.93;3.13;;;;;;;21.94;45.10;101903.88;5016384;28;20056;-64
2022/05/22 03:09:16;;;;;;;7.05;3.55;;;;;;;21.90;44.82;101902.53;5015654;28;20468;-64
2022/05/22 03:11:46;;;;;;;6.90;3.65;;;;;;;21.91;45.04;101909.50;5015754;28;20059;-64
2022/05/22 03:14:14;;;;;;;5.82;3.83;;;;;;;21.87;45.23;101895.72;5018817;28;20065;-64
2022/05/22 03:16:40;;;;;;;7.20;3.35;;;;;;;21.90;45.08;101900.72;5016503;28;20389;-63
2022/05/22 03:19:16;;;;;;;5.90;3.40;;;;;;;21.85;45.31;101904.84;5029556;28;20041;-63
2022/05/22 03:21:42;;;;;;;5.00;3.63;;;;;;;21.88;44.81;101894.72;5015344;28;20064;-63
2022/05/22 03:24:09;;;;;;;7.90;3.97;;;;;;;21.86;45.17;101890.59;5014120;28;20742;-63
2022/05/22 03:26:35;;;;;;;6.43;3.30;;;;;;;21.83;45.05;101880.34;5015838;28;20037;-63
2022/05/22 03:29:01;;;;;;;10.32;3.50;;;;;;;21.86;45.01;101888.78;5019713;28;20029;-63
2022/05/22 03:31:26;;;;;;;7.35;3.10;;;;;;;21.86;44.93;101880.00;5017373;28;20451;-63
2022/05/22 03:33:52;;;;;;;7.43;3.92;;;;;;;21.84;45.26;101882.81;5021032;28;20048;-64
2022/05/22 03:36:18;;;;;;;9.60;4.03;;;;;;;21.82;45.31;101878.69;5015352;28;20045;-63
2022/05/22 03:38:43;;;;;;;8.85;3.80;;;;;;;21.83;44.95;101881.16;5031206;28;20543;-63
2022/05/22 03:41:09;;;;;;;8.48;4.03;;;;;;;21.80;45.31;101876.19;5017873;28;20575;-63
2022/05/22 03:43:37;;;;;;;8.75;3.88;;;;;;;21.78;45.02;101867.59;5015886;28;20029;-63
2022/05/22 03:46:08;;;;;;;9.40;3.65;;;;;;;21.79;45.02;101865.75;5032332;28;20045;-64
2022/05/22 03:48:38;;;;;;;7.80;4.50;;;;;;;21.80;45.04;101872.72;5032587;28;20483;-63
2022/05/22 03:51:04;;;;;;;9.05;3.75;;;;;;;21.79;44.90;101865.75;5014329;28;20040;-63
2022/05/22 03:53:29;;;;;;;7.47;3.30;;;;;;;21.79;44.87;101869.25;5014661;28;20048;-63
2022/05/22 03:55:55;;;;;;;9.25;3.35;;;;;;;21.64;45.14;101841.75;5011086;28;20045;-64
2022/05/22 03:58:27;;;;;;;9.77;3.75;;;;;;;21.62;44.92;101841.09;5016077;28;20038;-63
2022/05/22 04:00:52;;;;;;;9.43;3.85;;;;;;;21.75;45.15;101873.22;5013029;28;20053;-63
2022/05/22 04:03:18;;;;;;;5.57;3.40;;;;;;;21.76;44.98;101869.59;5013963;28;20399;-63
2022/05/22 04:05:46;;;;;;;9.20;3.50;;;;;;;21.76;45.23;101874.88;5015823;28;20041;-63
2022/05/22 04:08:12;;;;;;;5.28;3.63;;;;;;;21.76;44.99;101876.72;5015929;28;20045;-63
2022/05/22 04:10:50;;;;;;;7.60;4.00;;;;;;;21.70;45.26;101870.22;5032086;28;20558;-63
2022/05/22 04:13:15;;;;;;;8.77;3.50;;;;;;;21.70;45.29;101879.00;5016917;28;20045;-63
2022/05/22 04:15:41;;;;;;;8.10;4.00;;;;;;;21.73;45.02;101874.41;5013480;28;20523;-63
2022/05/22 04:18:07;;;;;;;8.95;4.20;;;;;;;21.74;45.03;101876.03;5017218;28;20049;-63
2022/05/22 04:20:33;;;;;;;8.65;3.78;;;;;;;21.69;45.27;101876.53;5014026;28;20041;-63
2022/05/22 04:26:18;;;;;;;9.57;3.50;;;;;;;21.71;45.17;101867.41;5014705;28;20059;-63
2022/05/22 04:28:44;;;;;;;7.68;3.55;;;;;;;21.62;45.30;101854.34;5015113;28;20515;-63
2022/05/22 04:31:24;;;;;;;9.27;4.03;;;;;;;21.69;45.46;101861.44;5015632;28;20107;-63
2022/05/22 04:34:28;;;;;;;9.63;3.63;;;;;;;21.65;45.15;101860.13;5001293;28;20045;-63
2022/05/22 04:37:06;;;;;;;8.15;4.35;;;;;;;21.63;45.09;101864.78;5014838;28;20045;-63
2022/05/22 04:39:40;;;;;;;8.00;3.28;;;;;;;21.54;44.89;101841.91;5029095;28;20633;-63
2022/05/22 04:42:06;;;;;;;6.18;3.50;;;;;;;21.65;45.43;101870.72;5031170;28;20048;-63
2022/05/22 04:44:33;;;;;;;7.82;3.55;;;;;;;21.68;45.19;101867.75;5007060;28;20494;-63
2022/05/22 04:47:30;;;;;;;7.47;3.60;;;;;;;21.66;44.98;101872.38;5011221;28;20034;-64
2022/05/22 04:50:23;;;;;;;8.73;3.53;;;;;;;21.64;45.17;101865.59;4999817;28;20045;-63
2022/05/22 04:53:06;;;;;;;6.07;3.80;;;;;;;21.66;45.01;101867.09;5015649;28;20474;-64
2022/05/22 04:55:47;;;;;;;9.02;3.60;;;;;;;21.48;45.01;101845.22;5016345;28;20037;-64
2022/05/22 04:58:16;;;;;;;9.18;4.13;;;;;;;21.66;45.01;101874.22;5013857;28;20150;-64
2022/05/22 05:00:42;;;;;;;6.07;3.40;;;;;;;21.65;45.12;101869.91;5012909;28;20488;-63
2022/05/22 05:03:11;;;;;;;3.78;2.97;;;;;;;21.61;45.19;101868.59;5015756;28;20834;-63
2022/05/22 05:05:37;;;;;;;11.98;3.55;;;;;;;21.62;45.19;101864.94;5010604;28;20045;-63
2022/05/22 05:08:03;;;;;;;9.57;3.97;;;;;;;21.61;44.96;101855.34;5017119;28;20523;-64
2022/05/22 05:10:58;;;;;;;11.35;3.80;;;;;;;21.60;45.25;101856.34;5006923;28;20049;-63
2022/05/22 05:13:41;;;;;;;8.13;4.18;;;;;;;21.59;44.91;101852.03;5016366;28;20040;-63
2022/05/22 05:16:10;;;;;;;9.30;4.13;;;;;;;21.57;45.02;101860.16;5016213;28;20045;-63
2022/05/22 05:18:43;;;;;;;9.00;3.60;;;;;;;21.58;44.95;101856.50;5018974;28;20037;-64
2022/05/22 05:21:13;;;;;;;7.63;4.03;;;;;;;21.60;45.25;101856.34;5019246;28;20064;-64
2022/05/22 05:23:39;;;;;;;6.70;3.92;;;;;;;21.54;45.03;101844.56;5015106;28;20407;-64
2022/05/22 05:26:26;;;;;;;8.25;3.80;;;;;;;21.58;44.88;101864.47;5017634;28;20617;-64
2022/05/22 05:28:53;;;;;;;7.15;3.35;;;;;;;21.47;45.01;101842.75;5015771;28;20033;-63
2022/05/22 05:31:28;;;;;;;6.75;3.33;;;;;;;21.39;45.30;101836.47;5029819;28;20941;-64
2022/05/22 05:33:54;;;;;;;6.50;3.42;;;;;;;21.55;44.89;101859.50;5011970;28;20053;-63
2022/05/22 05:36:26;;;;;;;9.98;3.22;;;;;;;21.57;45.00;101856.66;5015063;28;20037;-64
2022/05/22 05:39:03;;;;;;;8.68;3.45;;;;;;;21.57;45.24;101856.66;5018879;28;20056;-63
2022/05/22 05:41:49;;;;;;;10.15;3.38;;;;;;;21.53;45.06;101861.44;5005786;28;20037;-64
2022/05/22 05:44:18;;;;;;;4.50;3.15;;;;;;;21.55;44.83;101863.97;5014160;28;20443;-64
2022/05/22 05:46:49;;;;;;;11.13;3.40;;;;;;;21.56;45.08;101873.56;5012258;28;20480;-63
2022/05/22 05:49:15;;;;;;;7.57;3.53;;;;;;;21.54;44.79;101871.06;5017320;28;20033;-63
2022/05/22 05:51:44;;;;;;;11.23;3.67;;;;;;;21.56;45.17;101874.41;5014112;28;20056;-63
2022/05/22 05:54:10;;;;;;;9.18;3.88;;;;;;;21.50;45.15;101864.44;5013239;28;20624;-63
2022/05/22 05:57:01;;;;;;;5.20;3.40;;;;;;;21.56;44.67;101866.44;5003929;28;20600;-63
2022/05/22 05:59:34;;;;;;;7.40;3.58;;;;;;;21.60;44.79;101866.94;5012303;28;20447;-63
2022/05/22 06:02:14;;;;;;;6.85;3.47;;;;;;;21.55;45.04;101867.44;5013681;28;20052;-64
2022/05/22 06:04:40;;;;;;;6.80;3.10;;;;;;;21.57;44.74;101864.63;5010667;28;20030;-63
2022/05/22 06:07:07;;;;;;;10.02;4.55;;;;;;;21.60;45.32;101862.47;5016637;28;20033;-64
2022/05/22 06:09:33;;;;;;;17.25;4.05;;;;;;;21.58;45.02;101858.31;5012284;28;20045;-63
2022/05/22 06:12:21;;;;;;;8.95;3.35;;;;;;;21.63;44.97;101859.47;5012477;28;20569;-64
2022/05/22 06:15:00;;;;;;;7.37;3.87;;;;;;;21.63;45.19;101856.81;5027209;28;20472;-63
2022/05/22 06:17:38;;;;;;;9.07;3.58;;;;;;;21.65;44.96;101846.06;5012776;28;20038;-63
2022/05/22 06:20:07;;;;;;;;;;;;;;;21.64;45.13;101847.06;5012467;28;20041;-63
2022/05/22 06:22:39;;;;;;;6.57;3.30;;;;;;;21.66;45.58;101850.34;5010664;28;19921;-63
2022/05/22 06:25:09;;;;;;;8.55;3.97;;;;;;;21.68;45.29;101851.84;5028558;28;20037;-63
2022/05/22 06:27:53;;;;;;;9.27;4.00;;;;;;;21.69;45.51;101844.72;5017148;28;20052;-63
2022/05/22 06:30:38;;;;;;;7.28;3.28;;;;;;;21.69;45.38;101842.06;5016967;28;20046;-64
2022/05/22 06:33:19;;;;;;;8.77;3.63;;;;;;;21.68;45.29;101841.25;5010393;28;21509;-63
2022/05/22 06:36:12;;;;;;;9.30;3.40;;;;;;;21.67;45.40;101844.06;5014710;28;20060;-64
2022/05/22 06:42:00;;;;;;;7.13;3.60;;;;;;;21.66;45.89;101848.53;4998310;28;20060;-64
2022/05/22 06:44:56;;;;;;;7.90;3.60;;;;;;;21.75;45.88;101845.88;5009608;28;20050;-63
2022/05/22 06:47:43;;;;;;;10.20;3.72;;;;;;;21.77;45.96;101851.84;5017888;28;20045;-64
2022/05/22 06:50:27;;;;;;;8.95;3.65;;;;;;;21.79;45.76;101847.19;5018382;28;20495;-63
2022/05/22 06:53:11;;;;;;;8.93;3.65;;;;;;;21.71;45.93;101832.13;5017413;28;20056;-64
2022/05/22 06:55:54;;;;;;;11.15;4.18;;;;;;;21.77;46.00;101839.41;5014655;28;20049;-63
2022/05/22 06:58:49;;;;;;;8.68;3.60;;;;;;;21.81;45.93;101847.84;5016805;28;20696;-64
2022/05/22 07:01:34;;;;;;;6.28;3.50;;;;;;;21.78;45.80;101841.06;5018492;28;20395;-63
2022/05/22 07:04:21;;;;;;;10.57;4.38;;;;;;;21.82;45.55;101836.25;5018537;28;20403;-66
2022/05/22 07:07:00;;;;;;;9.85;3.53;;;;;;;21.92;45.91;101860.78;5005801;28;20487;-64
2022/05/22 07:09:41;;;;;;;9.85;3.30;;;;;;;21.91;45.75;101854.66;5015570;28;20552;-65
2022/05/22 07:12:44;;;;;;;10.65;3.28;;;;;;;21.93;45.48;101851.81;5020606;28;21815;-64
2022/05/22 07:15:33;;;;;;;10.48;3.75;;;;;;;21.95;46.00;101850.66;5020980;28;20045;-64
2022/05/22 07:18:18;;;;;;;8.98;3.78;;;;;;;22.01;46.55;101854.44;5018920;28;20693;-64
2022/05/22 07:20:56;;;;;;;8.70;3.10;;;;;;;22.00;46.43;101856.28;5019039;28;20064;-64
2022/05/22 07:23:40;;;;;;;6.57;3.22;;;;;;;22.07;46.20;101860.91;5031364;28;20863;-64
2022/05/22 07:26:33;;;;;;;10.80;3.50;;;;;;;22.10;46.14;101857.97;5029723;28;20050;-65
2022/05/22 07:29:19;;;;;;;10.70;3.55;;;;;;;22.08;46.66;101841.34;5021836;28;20088;-64
2022/05/22 07:32:10;;;;;;;10.25;3.60;;;;;;;22.16;46.45;101849.31;5022205;28;20033;-65
2022/05/22 07:34:56;;;;;;;9.35;3.63;;;;;;;22.14;46.58;101841.53;5020420;28;20404;-65
2022/05/22 07:37:57;;;;;;;10.30;3.15;;;;;;;22.22;46.42;101854.75;5000734;28;20500;-66
2022/05/22 07:40:52;;;;;;;12.55;4.07;;;;;;;22.28;45.99;101854.09;5013980;28;20519;-66
2022/05/22 07:43:48;;;;;;;6.60;3.20;;;;;;;22.30;46.12;101860.03;5022561;28;20133;-66
2022/05/22 07:46:22;;;;;;;7.45;2.88;;;;;;;22.32;46.38;101857.22;5027392;28;20049;-66
2022/05/22 07:52:19;;;;;;;8.73;3.60;;;;;;;22.37;46.00;101846.06;5008314;28;20045;-66
2022/05/22 07:55:04;;;;;;;8.55;3.58;;;;;;;22.40;46.14;101853.69;5017181;28;20092;-67
2022/05/22 07:57:49;;;;;;;9.77;4.32;;;;;;;22.41;46.55;101850.03;5017544;28;20136;-66
2022/05/22 08:00:40;;;;;;;8.82;3.20;;;;;;;22.33;46.29;101842.13;5020918;28;20048;-67
2022/05/22 08:03:12;;;;;;;7.60;3.40;;;;;;;22.37;46.21;101840.78;5012666;28;20136;-66
2022/05/22 08:05:39;;;;;;;7.95;3.40;;;;;;;22.29;46.50;101839.81;5021931;28;20502;-67
2022/05/22 08:08:07;;;;;;;9.10;3.30;;;;;;;22.44;46.05;101847.03;5020205;28;20037;-67
2022/05/22 08:11:11;;;;;;;4.82;3.17;;;;;;;22.46;46.05;101853.84;5004532;28;20045;-65
2022/05/22 08:13:51;;;;;;;8.10;3.53;;;;;;;22.51;46.39;101855.97;5012632;28;20435;-66
2022/05/22 08:16:22;;;;;;;9.43;3.38;;;;;;;22.52;46.26;101847.00;5015479;28;20044;-65
2022/05/22 08:19:02;;;;;;;9.45;3.90;;;;;;;22.53;46.77;101849.50;5031850;28;20041;-65
2022/05/22 08:21:28;;;;;;;10.27;3.42;;;;;;;22.52;46.75;101839.06;5021542;28;20053;-65
2022/05/22 08:23:59;;;;;;;8.43;3.45;;;;;;;22.53;46.97;101836.22;5018769;28;20034;-64
2022/05/22 08:26:31;;;;;;;8.98;3.08;;;;;;;22.54;46.96;101840.53;5005824;28;20047;-65
2022/05/22 08:28:57;;;;;;;9.23;3.63;;;;;;;22.52;46.91;101836.41;5023210;28;20041;-65
2022/05/22 08:31:23;;;;;;;7.00;3.08;;;;;;;22.51;47.00;101840.88;5031889;28;20456;-65
2022/05/22 08:33:52;;;;;;;8.68;3.15;;;;;;;22.50;47.06;101841.88;5030789;28;20072;-65
2022/05/22 08:36:18;;;;;;;9.25;3.15;;;;;;;22.51;46.88;101835.56;5015730;28;20041;-65
2022/05/22 08:38:43;;;;;;;5.32;3.10;;;;;;;22.52;46.76;101837.22;5022026;28;20045;-65
2022/05/22 08:41:32;;;;;;;7.65;3.60;;;;;;;22.52;46.86;101836.41;5017195;28;20083;-65
2022/05/22 08:44:14;;;;;;;7.90;3.00;;;;;;;22.44;46.86;101825.81;5023108;28;20212;-65
2022/05/22 08:47:06;;;;;;;8.57;3.95;;;;;;;22.45;46.85;101828.31;5021221;28;20072;-65
2022/05/22 08:49:41;;;;;;;7.20;3.75;;;;;;;22.53;47.12;101830.91;5012353;28;20626;-65
2022/05/22 08:52:31;;;;;;;7.28;3.13;;;;;;;22.53;46.82;101828.25;5033480;28;20041;-65
2022/05/22 08:55:19;;;;;;;8.60;3.00;;;;;;;22.58;47.10;101835.69;5020512;28;20057;-65
2022/05/22 09:00:30;;;;;;;11.05;3.70;;;;;;;22.45;47.15;101824.84;5023980;28;20039;-65
2022/05/22 09:03:05;;;;;;;8.23;3.30;;;;;;;22.48;47.15;101830.63;5023574;28;20034;-65
2022/05/22 09:05:33;;;;;;;4.93;3.17;;;;;;;22.51;47.31;101829.44;5019790;28;20060;-65
2022/05/22 09:08:29;;;;;;;8.20;3.63;;;;;;;22.56;47.01;101824.44;5020630;28;20033;-65
2022/05/22 09:11:00;;;;;;;11.55;3.95;;;;;;;22.59;46.97;101826.72;5016772;28;20061;-65
2022/05/22 09:13:48;;;;;;;6.82;3.03;;;;;;;22.57;46.65;101820.78;5021383;28;20567;-65
2022/05/22 09:16:30;;;;;;;6.90;3.65;;;;;;;22.61;46.80;101828.19;5017024;28;20057;-65
2022/05/22 09:19:12;;;;;;;11.30;3.55;;;;;;;22.63;47.04;101825.41;5022807;28;20037;-65
2022/05/22 09:21:41;;;;;;;4.93;2.97;;;;;;;22.63;46.90;101824.56;5022535;28;20082;-65
2022/05/22 09:24:26;;;;;;;11.75;3.28;;;;;;;22.62;46.88;101829.03;5019632;28;20073;-65
2022/05/22 09:27:10;;;;;;;6.28;3.22;;;;;;;22.59;47.05;101830.22;5021184;28;20041;-65
2022/05/22 09:29:48;;;;;;;7.90;3.63;;;;;;;22.57;46.95;101824.25;5017066;28;20215;-65
2022/05/22 09:32:34;;;;;;;7.38;2.97;;;;;;;22.58;46.83;101820.59;5016370;28;20033;-65
2022/05/22 09:35:44;;;;;;;5.40;2.80;;;;;;;22.44;47.17;101786.00;5022505;28;20041;-65
2022/05/22 09:38:45;;;;;;;9.85;2.85;;;;;;;22.60;46.67;101799.19;4974524;28;20407;-64
2022/05/22 09:41:23;;;;;;;5.95;3.05;;;;;;;22.61;46.83;101801.66;5021360;28;20396;-65
2022/05/22 09:44:20;;;;;;;6.47;3.00;;;;;;;22.64;47.13;101795.19;5019568;28;20392;-65
2022/05/22 09:47:04;;;;;;;4.72;2.70;;;;;;;22.64;46.92;101789.88;4998376;28;20061;-65
2022/05/22 09:50:07;;;;;;;6.05;2.88;;;;;;;22.64;47.05;101784.56;5020650;28;20069;-64
2022/05/22 09:52:53;;;;;;;6.00;2.90;;;;;;;22.64;47.03;101781.91;5022571;28;20029;-64
2022/05/22 09:55:44;;;;;;;4.47;2.67;;;;;;;22.65;47.11;101772.97;5021377;28;20044;-65
2022/05/22 09:58:31;;;;;;;8.60;3.17;;;;;;;22.67;47.24;101775.44;5022982;28;20033;-65
2022/05/22 10:01:12;;;;;;;6.50;3.47;;;;;;;22.60;47.12;101773.47;5020798;28;20111;-65
2022/05/22 10:04:06;;;;;;;5.85;3.00;;;;;;;22.55;47.52;101767.84;5018199;28;20037;-65
2022/05/22 10:06:57;;;;;;;6.28;3.38;;;;;;;22.61;47.25;101775.09;5019701;28;20103;-65
2022/05/22 10:09:41;;;;;;;6.38;2.67;;;;;;;22.53;47.10;101761.91;5019505;28;20042;-65
2022/05/22 10:12:15;;;;;;;5.68;2.97;;;;;;;22.57;47.21;101763.19;5015128;28;20121;-65
2022/05/22 10:14:55;;;;;;;4.78;2.47;;;;;;;22.60;47.13;101760.19;5020457;28;20057;-65
2022/05/22 10:17:44;;;;;;;6.00;3.17;;;;;;;22.64;46.90;101757.19;5032043;28;20044;-65
2022/05/22 10:20:39;;;;;;;4.47;2.78;;;;;;;22.62;46.97;101754.69;5026610;28;20048;-65
2022/05/22 10:23:29;;;;;;;6.20;2.88;;;;;;;22.62;47.22;101746.72;5020186;28;20092;-65
2022/05/22 10:26:08;;;;;;;5.30;3.10;;;;;;;22.63;46.86;101748.41;5024163;28;20051;-65
2022/05/22 10:28:40;;;;;;;8.98;3.13;;;;;;;22.59;47.00;101736.47;5021849;28;20045;-65
2022/05/22 10:31:23;;;;;;;5.82;2.50;;;;;;;22.61;47.12;101732.63;5028402;28;20033;-65
2022/05/22 10:34:01;;;;;;;5.18;2.80;;;;;;;22.65;46.95;101727.00;5021774;28;20040;-65
2022/05/22 10:36:36;;;;;;;6.20;2.45;;;;;;;22.62;47.02;101722.84;5024022;28;20041;-65
2022/05/22 10:39:09;;;;;;;5.50;2.60;;;;;;;22.61;46.93;101721.19;5033848;28;20074;-65
2022/05/22 10:44:43;;;;;;;6.95;2.90;;;;;;;22.62;46.81;101720.19;5021358;28;20444;-65
2022/05/22 10:47:08;;;;;;;3.58;2.58;;;;;;;22.60;47.17;101715.06;5028085;28;20045;-65
2022/05/22 10:49:46;;;;;;;18.65;3.15;;;;;;;22.60;46.83;101715.06;5020789;28;20530;-64
2022/05/22 10:52:21;;;;;;;6.38;2.90;;;;;;;22.47;47.13;101704.22;5023624;28;20060;-65
2022/05/22 10:54:50;;;;;;;8.07;2.90;;;;;;;22.63;47.13;101723.69;5025338;28;20479;-65
2022/05/22 10:57:29;;;;;;;5.80;2.63;;;;;;;22.58;47.21;101714.41;5020502;28;20041;-65
2022/05/22 10:59:56;;;;;;;;;;;;;;;22.58;47.18;101710.94;5023093;28;20038;-65
2022/05/22 11:02:28;;;;;;;4.68;2.95;;;;;;;22.59;47.04;101717.88;5023356;28;19968;-66
2022/05/22 11:04:55;;;;;;;4.22;2.50;;;;;;;22.55;46.95;101692.72;5023591;28;20807;-65
2022/05/22 11:07:32;;;;;;;4.78;3.38;;;;;;;22.59;47.09;101709.94;5025359;28;20063;-65
2022/05/22 11:10:28;;;;;;;4.85;2.40;;;;;;;22.58;46.89;101703.78;5011971;28;20057;-65
2022/05/22 11:13:05;;;;;;;6.43;2.63;;;;;;;22.59;46.76;101704.63;5019632;28;20037;-65
2022/05/22 11:15:34;;;;;;;6.03;2.88;;;;;;;22.53;46.85;101698.19;5024113;28;20069;-65
2022/05/22 11:18:10;;;;;;;3.73;2.77;;;;;;;22.60;47.01;101701.78;5020473;28;20400;-65
2022/05/22 11:20:46;;;;;;;7.13;2.75;;;;;;;22.57;46.78;101696.84;5020632;28;20060;-65
2022/05/22 11:23:48;;;;;;;7.45;2.60;;;;;;;22.54;46.78;101694.53;5024366;28;20053;-65
2022/05/22 11:26:22;;;;;;;5.00;2.50;;;;;;;22.57;47.23;101690.69;5024279;28;20041;-65
2022/05/22 11:29:23;;;;;;;3.25;2.40;;;;;;;22.55;46.63;101682.91;5024426;28;20412;-65
2022/05/22 11:32:03;;;;;;;8.38;2.92;;;;;;;22.61;46.83;101684.03;5027920;28;20045;-65
2022/05/22 11:34:51;;;;;;;5.05;2.60;;;;;;;22.62;46.73;101677.72;5023489;28;20216;-65
2022/05/22 11:37:45;;;;;;;5.13;2.78;;;;;;;22.57;46.20;101669.47;5021295;28;20041;-65
2022/05/22 11:40:48;;;;;;;3.92;2.45;;;;;;;22.61;46.75;101668.91;5019945;28;20551;-65
2022/05/22 11:43:38;;;;;;;5.10;2.65;;;;;;;22.61;47.00;101665.44;5014509;28;20050;-65
2022/05/22 11:46:16;;;;;;;;;;;;;;;22.64;46.29;101673.06;5016798;28;20080;-65
2022/05/22 11:49:19;;;;;;;6.75;3.03;;;;;;;22.65;46.94;101657.97;5024095;28;20007;-65
2022/05/22 11:55:45;;;;;;;4.65;3.00;;;;;;;22.63;46.28;101655.50;5021340;28;20100;-65
2022/05/22 11:58:32;;;;;;;4.57;2.50;;;;;;;22.64;45.86;101653.66;5021125;28;20117;-66
2022/05/22 12:01:07;;;;;;;3.83;2.55;;;;;;;22.64;46.30;101651.84;5018923;28;20041;-65
2022/05/22 12:03:54;;;;;;;6.32;2.55;;;;;;;22.66;46.26;101655.13;5016945;28;20040;-69
2022/05/22 12:06:26;;;;;;;5.50;2.90;;;;;;;22.64;45.91;101651.84;5022416;28;20025;-65
2022/05/22 12:09:13;;;;;;;4.97;2.75;;;;;;;22.64;45.92;101651.00;5020162;28;20045;-64
2022/05/22 12:11:53;;;;;;;4.63;2.60;;;;;;;22.61;45.65;101633.59;5032844;28;20065;-64
2022/05/22 12:14:19;;;;;;;;;;;;;;;22.67;45.61;101643.50;5021492;28;20056;-65
2022/05/22 12:17:17;;;;;;;4.63;2.40;;;;;;;22.69;45.34;101640.69;5021722;28;20030;-65
2022/05/22 12:19:58;;;;;;;4.95;2.70;;;;;;;22.71;45.42;101636.84;5016980;28;20049;-65
2022/05/22 12:23:07;;;;;;;4.65;2.55;;;;;;;22.68;45.35;101637.19;5021113;28;20436;-64